.
WxDataArchive / Data Records for 2007-12-22
2007-12-21 December 2007 2007-12-23

Data Records for Saturday, 22 December 2007

Time	Temp	Chill	HIndex	Humid	Dewpt	 Wind 	HiWind	WindDir	Rain 	Barom 
-----	----	-----	------	-----	-----	------	------	-------	-----	----- 
00:00	35.0	35.0	35.0	96	34.0	1	2	112	0.00	30.041 
00:05	35.2	35.2	35.2	96	34.2	1	2	112	0.00	30.039 
00:10	35.2	35.2	35.2	96	34.2	0	1	112	0.00	30.039 
00:15	35.2	35.2	35.2	96	34.2	0	1	112	0.00	30.038 
00:20	35.2	35.2	35.2	96	34.2	0	1	112	0.00	30.037 
00:25	35.2	35.2	35.2	96	34.2	0	1	112	0.00	30.039 
00:30	35.3	35.3	35.3	96	34.3	0	2	112	0.01	30.038 
00:35	35.3	35.3	35.3	96	34.3	0	1	112	0.00	30.039 
00:40	35.5	35.5	35.5	96	34.5	0	1	112	0.00	30.042 
00:45	35.5	35.5	35.5	97	34.7	0	0	---	0.00	30.042 
00:50	35.3	35.3	35.3	97	34.5	0	1	112	0.00	30.041 
00:55	35.5	35.5	35.5	96	34.5	0	2	112	0.00	30.040 
01:00	35.5	35.5	35.5	96	34.5	0	0	---	0.00	30.041 
01:05	35.5	35.5	35.5	97	34.7	0	1	112	0.00	30.039 
01:10	35.5	35.5	35.5	97	34.7	0	1	112	0.00	30.039 
01:15	35.5	35.5	35.5	97	34.7	0	1	112	0.00	30.038 
01:20	35.6	35.6	35.6	97	34.8	0	1	112	0.00	30.038 
01:25	35.8	35.8	35.8	97	35.0	0	1	112	0.00	30.038 
01:30	35.8	35.8	35.8	97	35.0	0	1	112	0.00	30.038 
01:35	35.9	35.9	35.9	97	35.1	0	1	112	0.01	30.037 
01:40	36.0	36.0	36.0	97	35.2	0	1	112	0.00	30.037 
01:45	36.0	36.0	36.0	97	35.2	0	1	112	0.00	30.037 
01:50	36.0	36.0	36.0	97	35.2	0	0	---	0.00	30.036 
01:55	36.0	36.0	36.0	97	35.2	0	0	---	0.00	30.033 
02:00	36.0	36.0	36.0	97	35.2	0	0	---	0.00	30.032 
02:05	35.9	35.9	35.9	97	35.1	0	0	---	0.00	30.038 
02:10	36.0	36.0	36.0	97	35.2	0	1	112	0.00	30.037 
02:15	36.2	36.2	36.2	97	35.4	0	2	112	0.01	30.035 
02:20	36.3	36.3	36.3	97	35.5	0	1	112	0.00	30.038 
02:25	36.5	36.5	36.5	97	35.7	0	1	112	0.00	30.038 
02:30	36.6	36.6	36.6	97	35.8	0	1	112	0.00	30.037 
02:35	36.8	36.8	36.8	97	36.0	1	4	68	0.00	30.034 
02:40	36.9	36.9	36.9	97	36.1	1	4	68	0.00	30.030 
02:45	36.9	36.9	36.9	97	36.1	1	2	90	0.00	30.034 
02:50	36.9	36.9	36.9	97	36.1	0	1	90	0.00	30.038 
02:55	36.8	36.8	36.8	97	36.0	0	1	90	0.01	30.040 
03:00	36.8	36.8	36.8	97	36.0	0	2	90	0.00	30.040 
03:05	36.8	36.8	36.8	97	36.0	0	1	90	0.00	30.040 
03:10	36.8	36.8	36.8	97	36.0	0	1	90	0.00	30.039 
03:15	36.8	36.8	36.8	97	36.0	0	1	90	0.00	30.039 
03:20	36.8	36.8	36.8	97	36.0	0	2	90	0.01	30.039 
03:25	36.8	36.8	36.8	97	36.0	0	2	90	0.00	30.039 
03:30	36.6	36.6	36.6	97	35.8	0	1	90	0.00	30.039 
03:35	36.6	36.6	36.6	97	35.8	0	0	---	0.00	30.039 
03:40	36.6	36.6	36.6	97	35.8	0	1	90	0.00	30.039 
03:45	36.6	36.6	36.6	97	35.8	0	1	90	0.00	30.039 
03:50	36.8	36.8	36.8	97	36.0	0	1	90	0.00	30.039 
03:55	36.6	36.6	36.6	97	35.8	0	1	90	0.00	30.039 
04:00	36.6	36.6	36.6	97	35.8	0	1	90	0.00	30.038 
04:05	36.6	36.6	36.6	97	35.8	0	1	90	0.00	30.036 
04:10	36.8	36.8	36.8	97	36.0	0	2	90	0.01	30.035 
04:15	36.6	36.6	36.6	97	35.8	1	2	90	0.00	30.032 
04:20	36.6	36.6	36.6	97	35.8	0	1	90	0.00	30.032 
04:25	36.6	36.6	36.6	97	35.8	0	1	90	0.00	30.036 
04:30	36.8	36.8	36.8	97	36.0	0	2	90	0.00	30.024 
04:35	36.8	36.8	36.8	97	36.0	0	2	90	0.00	30.024 
04:40	36.8	36.8	36.8	97	36.0	0	1	90	0.01	30.027 
04:45	36.9	36.9	36.9	97	36.1	0	2	90	0.00	30.024 
04:50	36.9	36.9	36.9	97	36.1	0	1	90	0.00	30.024 
04:55	36.8	36.8	36.8	97	36.0	0	0	---	0.00	30.023 
05:00	36.5	36.5	36.5	97	35.7	0	1	90	0.00	30.021 
05:05	36.6	36.6	36.6	97	35.8	0	1	90	0.00	30.022 
05:10	36.8	36.8	36.8	97	36.0	0	2	90	0.00	30.021 
05:15	36.8	36.8	36.8	97	36.0	0	0	---	0.00	30.022 
05:20	36.6	36.6	36.6	97	35.8	0	0	---	0.00	30.024 
05:25	36.5	36.5	36.5	97	35.7	0	1	90	0.00	30.026 
05:30	36.6	36.6	36.6	97	35.8	0	1	90	0.00	30.028 
05:35	36.9	36.9	36.9	97	36.1	0	1	90	0.01	30.029 
05:40	37.0	37.0	37.0	97	36.2	0	1	90	0.00	30.026 
05:45	37.0	37.0	37.0	97	36.2	1	2	90	0.00	30.023 
05:50	37.0	37.0	37.0	97	36.2	0	2	90	0.00	30.023 
05:55	37.0	37.0	37.0	97	36.2	0	1	90	0.00	30.027 
06:00	37.0	37.0	37.0	97	36.2	0	2	90	0.00	30.024 
06:05	37.2	37.2	37.2	97	36.4	1	2	90	0.01	30.025 
06:10	37.3	37.3	37.3	97	36.5	0	2	90	0.00	30.024 
06:15	37.3	37.3	37.3	97	36.5	0	1	90	0.00	30.027 
06:20	37.5	37.5	37.5	97	36.7	0	1	90	0.00	30.028 
06:25	37.5	37.5	37.5	97	36.7	0	1	90	0.00	30.027 
06:30	37.5	37.5	37.5	97	36.7	0	0	---	0.00	30.030 
06:35	37.6	37.6	37.6	98	37.1	0	1	90	0.00	30.028 
06:40	37.9	37.9	37.9	98	37.4	1	2	90	0.00	30.021 
06:45	38.2	38.2	38.2	98	37.7	0	1	90	0.00	30.026 
06:50	38.5	38.5	38.5	98	38.0	0	2	90	0.01	30.034 
06:55	38.9	38.9	38.9	98	38.4	0	1	90	0.00	30.037 
07:00	39.3	39.3	39.3	98	38.8	0	1	90	0.00	30.037 
07:05	39.3	39.3	39.3	98	38.8	0	1	90	0.00	30.041 
07:10	39.5	39.5	39.5	98	39.0	0	2	90	0.00	30.038 
07:15	39.8	39.8	39.8	98	39.3	1	4	90	0.01	30.043 
07:20	40.2	40.2	40.2	98	39.7	1	2	135	0.00	30.039 
07:25	40.5	40.5	40.5	98	40.0	1	3	112	0.00	30.036 
07:30	40.6	40.6	40.6	98	40.1	1	2	135	0.00	30.036 
07:35	40.8	40.8	40.8	98	40.3	1	3	112	0.01	30.044 
07:40	40.8	40.8	40.8	98	40.3	1	3	135	0.00	30.046 
07:45	40.6	40.6	40.6	98	40.1	1	3	90	0.00	30.035 
07:50	40.3	40.3	40.3	98	39.8	0	2	90	0.01	30.039 
07:55	40.2	40.2	40.2	98	39.7	0	1	90	0.00	30.046 
08:00	40.2	40.2	40.2	98	39.7	0	1	90	0.00	30.047 
08:05	39.9	39.9	39.9	98	39.4	0	1	90	0.00	30.044 
08:10	39.8	39.8	39.8	98	39.3	0	1	90	0.00	30.046 
08:15	39.6	39.6	39.6	98	39.1	0	1	90	0.00	30.052 
08:20	39.9	39.9	39.9	98	39.4	0	1	90	0.00	30.054 
08:25	39.9	39.9	39.9	98	39.4	0	2	90	0.01	30.052 
08:30	39.9	39.9	39.9	98	39.4	0	1	90	0.00	30.054 
08:35	39.9	39.9	39.9	98	39.4	1	3	112	0.00	30.053 
08:40	40.2	40.2	40.2	98	39.7	1	3	112	0.00	30.051 
08:45	40.3	40.3	40.3	98	39.8	1	2	135	0.01	30.049 
08:50	40.5	40.5	40.5	98	40.0	1	3	135	0.00	30.049 
08:55	40.5	40.5	40.5	98	40.0	1	3	135	0.00	30.048 
09:00	40.5	40.5	40.5	98	40.0	0	2	135	0.00	30.048 
09:05	40.6	40.6	40.6	98	40.1	1	3	135	0.00	30.049 
09:10	40.8	40.8	40.8	98	40.3	1	3	135	0.01	30.049 
09:15	40.8	40.8	40.8	98	40.3	1	3	112	0.00	30.049 
09:20	40.8	40.8	40.8	98	40.3	0	1	112	0.00	30.047 
09:25	40.8	40.8	40.8	98	40.3	0	1	112	0.01	30.043 
09:30	40.8	40.8	40.8	97	40.0	0	1	112	0.00	30.046 
09:35	41.1	41.1	41.1	97	40.3	0	2	112	0.00	30.050 
09:40	41.2	41.2	41.2	97	40.4	1	3	112	0.00	30.052 
09:45	41.5	41.5	41.5	97	40.7	1	3	112	0.00	30.051 
09:50	41.5	41.5	41.5	97	40.7	1	4	112	0.01	30.048 
09:55	41.6	41.6	41.6	97	40.8	1	3	135	0.00	30.050 
10:00	41.8	41.8	41.8	97	41.0	1	5	112	0.00	30.049 
10:05	41.9	41.9	41.9	97	41.1	1	5	112	0.01	30.051 
10:10	42.1	42.1	42.1	96	41.0	1	5	135	0.00	30.051 
10:15	42.1	42.1	42.1	96	41.0	1	4	135	0.00	30.054 
10:20	42.2	42.2	42.2	96	41.1	1	3	68	0.00	30.055 
10:25	42.2	42.2	42.2	96	41.1	1	7	68	0.01	30.061 
10:30	42.2	42.2	42.2	95	40.9	1	4	112	0.00	30.051 
10:35	42.2	42.2	42.2	95	40.9	1	3	112	0.00	30.049 
10:40	42.2	42.2	42.2	94	40.6	2	5	112	0.01	30.046 
10:45	42.1	42.1	42.1	94	40.5	2	4	112	0.00	30.039 
10:50	42.2	42.2	42.2	93	40.3	2	6	135	0.00	30.038 
10:55	42.2	42.2	42.2	93	40.3	1	3	135	0.00	30.036 
11:00	42.3	42.3	42.3	93	40.4	2	5	90	0.01	30.030 
11:05	42.5	42.5	42.5	93	40.6	1	4	135	0.00	30.030 
11:10	42.5	42.5	42.5	92	40.3	2	6	135	0.00	30.021 
11:15	42.6	42.6	42.6	92	40.4	2	4	112	0.01	30.026 
11:20	42.6	42.6	42.6	92	40.4	3	6	112	0.00	30.014 
11:25	42.6	42.6	42.6	91	40.2	2	5	90	0.00	30.012 
11:30	42.8	42.8	42.8	91	40.4	2	6	90	0.00	30.013 
11:35	42.9	42.9	42.9	91	40.5	2	5	90	0.00	30.012 
11:40	43.1	43.1	43.1	91	40.7	1	5	90	0.01	30.013 
11:45	43.3	43.3	43.3	90	40.6	1	4	90	0.00	30.001 
11:50	43.3	43.3	43.3	90	40.6	2	5	112	0.00	29.999 
11:55	43.5	43.5	43.5	89	40.5	2	4	112	0.00	30.000 
12:00	43.8	43.8	43.8	89	40.8	1	4	90	0.01	29.999 
12:05	43.9	43.9	43.9	89	40.9	1	4	135	0.00	29.997 
12:10	43.9	43.9	43.9	88	40.6	1	4	112	0.00	29.994 
12:15	43.9	43.9	43.9	88	40.6	1	6	135	0.00	29.996 
12:20	43.9	43.9	43.9	88	40.6	2	6	112	0.00	29.996 
12:25	43.9	43.9	43.9	88	40.6	2	6	112	0.00	29.992 
12:30	43.9	43.9	43.9	88	40.6	1	3	112	0.00	29.990 
12:35	43.8	43.8	43.8	88	40.5	2	7	112	0.00	29.985 
12:40	43.6	43.6	43.6	88	40.3	1	4	90	0.00	29.988 
12:45	43.6	43.6	43.6	88	40.3	1	4	90	0.00	29.981 
12:50	43.5	43.5	43.5	88	40.2	1	4	112	0.00	29.981 
12:55	43.3	43.3	43.3	88	40.0	1	3	90	0.00	29.973 
13:00	43.3	43.3	43.3	89	40.3	1	3	112	0.01	29.973 
13:05	43.3	43.3	43.3	89	40.3	1	2	112	0.00	29.969 
13:10	43.3	43.3	43.3	89	40.3	1	3	112	0.00	29.973 
13:15	43.3	43.3	43.3	89	40.3	1	3	112	0.00	29.966 
13:20	43.3	43.3	43.3	88	40.0	0	1	90	0.00	29.964 
13:25	43.3	43.3	43.3	88	40.0	0	2	90	0.00	29.966 
13:30	43.2	43.2	43.2	89	40.2	0	2	112	0.00	29.965 
13:35	43.2	43.2	43.2	89	40.2	0	1	158	0.00	29.969 
13:40	43.3	43.3	43.3	89	40.3	0	1	158	0.00	29.970 
13:45	43.2	43.2	43.2	89	40.2	0	1	158	0.00	29.971 
13:50	43.2	43.2	43.2	89	40.2	0	2	158	0.00	29.967 
13:55	43.2	43.2	43.2	89	40.2	0	2	158	0.00	29.967 
14:00	43.2	43.2	43.2	89	40.2	0	2	135	0.00	29.960 
14:05	43.1	43.1	43.1	89	40.1	0	1	135	0.00	29.954 
14:10	42.9	42.9	42.9	89	39.9	0	1	135	0.00	29.951 
14:15	43.1	43.1	43.1	90	40.4	0	2	135	0.00	29.958 
14:20	43.1	43.1	43.1	89	40.1	0	2	135	0.00	29.953 
14:25	43.1	43.1	43.1	89	40.1	0	1	135	0.00	29.946 
14:30	42.9	42.9	42.9	89	39.9	0	2	135	0.00	29.937 
14:35	42.9	42.9	42.9	90	40.2	1	2	135	0.00	29.936 
14:40	43.1	43.1	43.1	90	40.4	1	2	135	0.00	29.934 
14:45	43.2	43.2	43.2	90	40.5	1	3	90	0.00	29.934 
14:50	43.2	43.2	43.2	90	40.5	1	3	112	0.00	29.933 
14:55	43.2	43.2	43.2	90	40.5	0	2	112	0.00	29.923 
15:00	43.2	43.2	43.2	90	40.5	0	1	112	0.00	29.922 
15:05	43.3	43.3	43.3	90	40.6	0	2	112	0.00	29.926 
15:10	43.3	43.3	43.3	90	40.6	0	2	112	0.00	29.927 
15:15	43.3	43.3	43.3	90	40.6	0	1	112	0.00	29.925 
15:20	43.2	43.2	43.2	90	40.5	0	1	112	0.00	29.927 
15:25	43.2	43.2	43.2	90	40.5	0	1	112	0.00	29.925 
15:30	43.1	43.1	43.1	91	40.7	0	0	---	0.00	29.930 
15:35	43.1	43.1	43.1	91	40.7	0	1	112	0.00	29.931 
15:40	42.9	42.9	42.9	91	40.5	0	0	---	0.00	29.927 
15:45	42.9	42.9	42.9	91	40.5	0	1	112	0.00	29.924 
15:50	42.8	42.8	42.8	91	40.4	0	2	112	0.00	29.920 
15:55	42.8	42.8	42.8	91	40.4	1	2	112	0.00	29.918 
16:00	42.9	42.9	42.9	92	40.7	1	2	112	0.00	29.914 
16:05	43.1	43.1	43.1	92	40.9	1	2	112	0.00	29.914 
16:10	42.9	42.9	42.9	92	40.7	0	2	112	0.00	29.915 
16:15	42.9	42.9	42.9	92	40.7	0	1	112	0.00	29.914 
16:20	42.8	42.8	42.8	92	40.6	0	2	112	0.00	29.912 
16:25	42.9	42.9	42.9	92	40.7	0	4	112	0.00	29.916 
16:30	43.6	43.6	43.6	93	41.7	1	3	90	0.00	29.917 
16:35	44.1	44.1	44.1	92	41.9	1	2	90	0.00	29.910 
16:40	44.6	44.6	44.6	92	42.4	0	3	248	0.00	29.902 
16:45	44.9	44.9	44.9	90	42.1	0	3	68	0.00	29.903 
16:50	45.2	45.2	45.2	90	42.4	0	2	68	0.00	29.900 
16:55	45.1	45.1	45.1	89	42.1	0	1	68	0.00	29.896 
17:00	44.8	44.8	44.8	89	41.8	0	1	68	0.00	29.901 
17:05	44.6	44.6	44.6	89	41.6	0	0	---	0.00	29.912 
17:10	44.3	44.3	44.3	89	41.3	0	0	---	0.00	29.908 
17:15	43.8	43.8	43.8	89	40.8	0	1	68	0.00	29.903 
17:20	43.1	43.1	43.1	90	40.4	0	0	---	0.00	29.902 
17:25	42.3	42.3	42.3	89	39.3	0	0	---	0.00	29.895 
17:30	42.1	42.1	42.1	90	39.4	0	0	---	0.00	29.904 
17:35	41.6	41.6	41.6	90	38.9	0	0	---	0.00	29.905 
17:40	41.3	41.3	41.3	90	38.6	0	1	68	0.00	29.904 
17:45	41.2	41.2	41.2	92	39.1	0	1	68	0.00	29.909 
17:50	41.2	41.2	41.2	92	39.1	0	0	---	0.00	29.919 
17:55	41.1	41.1	41.1	92	39.0	0	1	68	0.00	29.915 
18:00	41.1	41.1	41.1	93	39.2	0	1	68	0.00	29.914 
18:05	41.1	41.1	41.1	93	39.2	0	1	68	0.00	29.904 
18:10	41.1	41.1	41.1	94	39.5	0	0	---	0.00	29.903 
18:15	41.1	41.1	41.1	94	39.5	0	0	---	0.00	29.909 
18:20	40.9	40.9	40.9	94	39.3	0	1	68	0.00	29.908 
18:25	40.8	40.8	40.8	94	39.2	0	1	68	0.00	29.904 
18:30	40.8	40.8	40.8	94	39.2	0	1	68	0.00	29.902 
18:35	40.6	40.6	40.6	94	39.0	0	1	68	0.00	29.906 
18:40	40.9	40.9	40.9	95	39.6	0	2	68	0.00	29.905 
18:45	41.1	41.1	41.1	95	39.8	0	1	68	0.00	29.903 
18:50	41.1	41.1	41.1	95	39.8	0	0	---	0.00	29.903 
18:55	41.1	41.1	41.1	95	39.8	0	1	68	0.00	29.903 
19:00	41.2	41.2	41.2	95	39.9	0	1	68	0.00	29.899 
19:05	41.1	41.1	41.1	95	39.8	0	0	---	0.00	29.896 
19:10	40.8	40.8	40.8	95	39.5	0	0	---	0.00	29.892 
19:15	40.6	40.6	40.6	95	39.3	0	0	---	0.00	29.891 
19:20	40.3	40.3	40.3	95	39.0	0	0	---	0.00	29.887 
19:25	40.5	40.5	40.5	95	39.2	0	2	68	0.00	29.873 
19:30	40.9	40.9	40.9	96	39.8	1	2	68	0.00	29.864 
19:35	41.3	41.3	41.3	96	40.2	1	3	68	0.00	29.862 
19:40	41.6	41.6	41.6	96	40.5	1	2	68	0.00	29.856 
19:45	41.6	41.6	41.6	96	40.5	1	3	68	0.00	29.861 
19:50	41.6	41.6	41.6	96	40.5	0	2	68	0.00	29.861 
19:55	41.5	41.5	41.5	96	40.4	0	1	68	0.00	29.858 
20:00	41.2	41.2	41.2	96	40.1	0	1	68	0.00	29.854 
20:05	41.1	41.1	41.1	96	40.0	0	1	68	0.00	29.852 
20:10	40.9	40.9	40.9	96	39.8	0	1	68	0.00	29.842 
20:15	40.9	40.9	40.9	96	39.8	1	3	90	0.00	29.827 
20:20	41.1	41.1	41.1	96	40.0	1	2	90	0.00	29.822 
20:25	41.1	41.1	41.1	96	40.0	0	1	90	0.00	29.823 
20:30	41.1	41.1	41.1	96	40.0	0	2	90	0.00	29.828 
20:35	41.1	41.1	41.1	96	40.0	0	0	---	0.00	29.835 
20:40	40.9	40.9	40.9	96	39.8	0	1	90	0.00	29.831 
20:45	40.9	40.9	40.9	96	39.8	0	2	90	0.00	29.823 
20:50	41.1	41.1	41.1	96	40.0	1	2	90	0.00	29.818 
20:55	40.9	40.9	40.9	96	39.8	0	1	90	0.00	29.820 
21:00	41.1	41.1	41.1	96	40.0	1	3	90	0.00	29.819 
21:05	41.2	41.2	41.2	96	40.1	1	2	90	0.00	29.816 
21:10	41.2	41.2	41.2	96	40.1	0	1	90	0.00	29.810 
21:15	41.3	41.3	41.3	96	40.2	0	2	90	0.00	29.807 
21:20	41.3	41.3	41.3	96	40.2	0	1	90	0.00	29.806 
21:25	41.2	41.2	41.2	96	40.1	0	1	90	0.00	29.805 
21:30	41.1	41.1	41.1	95	39.8	0	1	90	0.00	29.791 
21:35	41.2	41.2	41.2	95	39.9	0	2	90	0.00	29.791 
21:40	41.3	41.3	41.3	96	40.2	0	2	90	0.00	29.788 
21:45	41.6	41.6	41.6	95	40.3	0	1	90	0.00	29.777 
21:50	41.9	41.9	41.9	95	40.6	0	1	90	0.00	29.777 
21:55	42.3	42.3	42.3	95	41.0	1	3	90	0.00	29.761 
22:00	42.6	42.6	42.6	95	41.3	0	2	90	0.00	29.759 
22:05	42.8	42.8	42.8	94	41.2	0	1	90	0.00	29.758 
22:10	43.1	43.1	43.1	94	41.5	0	3	90	0.00	29.764 
22:15	43.2	43.2	43.2	93	41.3	0	2	90	0.00	29.765 
22:20	43.5	43.5	43.5	93	41.6	0	2	90	0.00	29.762 
22:25	43.9	43.9	43.9	92	41.7	1	3	90	0.00	29.757 
22:30	44.5	44.5	44.5	91	42.0	1	3	90	0.00	29.752 
22:35	45.2	45.2	45.2	90	42.4	1	6	112	0.00	29.756 
22:40	46.1	46.1	46.1	88	42.7	2	4	90	0.00	29.753 
22:45	46.7	46.7	46.7	86	42.7	2	6	135	0.00	29.753 
22:50	47.1	47.1	47.1	85	42.8	1	5	135	0.00	29.750 
22:55	47.4	47.4	47.4	84	42.8	2	4	112	0.00	29.745 
23:00	47.6	47.6	47.6	84	43.0	2	6	112	0.00	29.737 
23:05	47.7	47.7	47.7	83	42.8	2	6	90	0.01	29.727 
23:10	47.6	47.6	47.6	83	42.7	2	4	90	0.00	29.719 
23:15	47.6	47.6	47.6	83	42.7	2	4	135	0.00	29.719 
23:20	47.4	47.4	47.4	84	42.8	1	3	112	0.00	29.708 
23:25	47.0	47.0	47.0	84	42.4	1	2	135	0.01	29.705 
23:30	46.5	46.5	46.5	85	42.2	0	1	135	0.00	29.704 
23:35	46.2	46.2	46.2	86	42.2	1	2	135	0.01	29.692 
23:40	46.0	46.0	46.0	88	42.6	0	2	135	0.00	29.691 
23:45	45.7	45.7	45.7	89	42.6	1	2	135	0.01	29.688 
23:50	45.7	45.7	45.7	89	42.6	1	2	112	0.01	29.687 
23:55	45.5	45.5	45.5	90	42.7	0	2	112	0.01	29.686 

CoCoRaHS
IN-AL-39
A2 Web Hosting
Creative Commons License
GoDaddy
Look for:

loaded 2017-12-13 20:00:44 • last modified 2010-11-18 10:43:29
Privacy PolicyDisclaimer
• wx.awcolley.com is powered by PmWiki v.2002016 •
• all content (unless otherwise noted) © 2017 A W Colley